Time;durP1;ratioP1;P1;durP2;ratioP2;P2;SDS_P1;SDS_P2;PMS_P1;PMS_P2;Temp;Humidity;BMP_temperature;BMP_pressure;BME280_temperature;BME280_humidity;BME280_pressure;Samples;Min_cycle;Max_cycle;Signal;HPM_P1;HPM_P2
2021/04/11 00:00:31;;;;;;;20.73;10.15;;;;;;;8.13;57.35;100757.03;5021559;28;20103;-65
2021/04/11 00:02:58;;;;;;;30.38;13.25;;;;;;;8.03;57.90;100759.31;5038892;28;20049;-64
2021/04/11 00:05:28;;;;;;;35.30;14.77;;;;;;;7.98;57.75;100758.81;5039168;28;20037;-65
2021/04/11 00:07:53;;;;;;;39.20;19.35;;;;;;;7.93;57.38;100759.13;5038754;28;20033;-65
2021/04/11 00:10:29;;;;;;;37.42;18.20;;;;;;;7.86;57.29;100753.41;5038980;28;20219;-65
2021/04/11 00:12:56;;;;;;;31.70;16.60;;;;;;;7.80;57.58;100750.13;5038909;28;20325;-64
2021/04/11 00:15:22;;;;;;;34.92;15.38;;;;;;;7.75;58.00;100758.84;5038725;28;20425;-65
2021/04/11 00:17:47;;;;;;;30.50;13.80;;;;;;;7.73;58.09;100772.41;5021023;28;20036;-60
2021/04/11 00:20:13;;;;;;;26.73;12.73;;;;;;;7.72;57.84;100760.41;5038895;28;20033;-65
2021/04/11 00:22:39;;;;;;;23.38;11.00;;;;;;;7.71;58.02;100753.19;5038780;28;20029;-65
2021/04/11 00:25:08;;;;;;;26.33;10.32;;;;;;;7.67;57.81;100757.94;5038820;28;20036;-65
2021/04/11 00:27:33;;;;;;;21.63;10.73;;;;;;;7.65;57.63;100751.06;5038628;28;20026;-65
2021/04/11 00:29:58;;;;;;;14.38;7.60;;;;;;;7.58;57.90;100742.56;5038601;28;20108;-65
2021/04/11 00:32:24;;;;;;;13.95;6.95;;;;;;;7.53;57.93;100752.06;5038256;28;20036;-60
2021/04/11 00:34:49;;;;;;;15.23;7.35;;;;;;;7.52;58.36;100764.44;5038675;28;20045;-63
2021/04/11 00:37:15;;;;;;;15.15;7.30;;;;;;;7.52;58.32;100749.66;5038243;28;20048;-59
2021/04/11 00:39:40;;;;;;;14.77;7.28;;;;;;;7.49;57.60;100751.22;5038211;28;20064;-65
2021/04/11 00:42:14;;;;;;;12.05;6.90;;;;;;;7.49;57.77;100751.22;5017610;28;20079;-59
2021/04/11 00:44:39;;;;;;;13.32;7.57;;;;;;;7.48;58.20;100754.38;5037379;28;20029;-61
2021/04/11 00:47:05;;;;;;;15.40;7.80;;;;;;;7.44;58.35;100763.53;5038292;28;20086;-64
2021/04/11 00:49:40;;;;;;;11.85;7.10;;;;;;;7.43;57.91;100759.13;5038199;28;20029;-64
2021/04/11 00:52:10;;;;;;;16.83;7.28;;;;;;;7.42;58.03;100762.28;5038248;28;20429;-62
2021/04/11 00:54:36;;;;;;;17.42;7.78;;;;;;;7.38;58.13;100766.97;5038216;28;20033;-57
2021/04/11 00:57:03;;;;;;;15.65;7.43;;;;;;;7.37;58.18;100770.97;5038112;28;20030;-59
2021/04/11 00:59:29;;;;;;;13.80;6.65;;;;;;;7.35;58.24;100764.94;5037887;28;20375;-57
2021/04/11 01:01:55;;;;;;;17.25;6.53;;;;;;;7.34;58.31;100757.72;5037946;28;20112;-62
2021/04/11 01:04:20;;;;;;;17.83;7.75;;;;;;;7.34;58.07;100760.50;5038081;28;20123;-59
2021/04/11 01:06:52;;;;;;;14.18;6.72;;;;;;;7.34;58.14;100760.50;5037700;28;20036;-58
2021/04/11 01:09:24;;;;;;;10.48;6.30;;;;;;;7.36;57.57;100749.75;5038094;28;20048;-58
2021/04/11 01:11:52;;;;;;;13.52;5.60;;;;;;;7.36;57.42;100758.16;5020156;28;20037;-59
2021/04/11 01:14:18;;;;;;;12.82;6.70;;;;;;;7.36;57.79;100755.34;5037636;28;20156;-63
2021/04/11 01:16:44;;;;;;;12.77;6.70;;;;;;;7.35;57.47;100748.16;5019984;28;20065;-62
2021/04/11 01:19:15;;;;;;;12.48;5.90;;;;;;;7.33;57.58;100754.13;5037672;28;20135;-61
2021/04/11 01:21:50;;;;;;;14.73;7.00;;;;;;;7.33;57.52;100756.91;5037687;28;20041;-65
2021/04/11 01:24:34;;;;;;;10.13;6.57;;;;;;;7.36;57.60;100755.34;5037564;28;20325;-58
2021/04/11 01:27:01;;;;;;;13.50;6.13;;;;;;;7.37;57.34;100760.56;5037685;28;20038;-60
2021/04/11 01:29:27;;;;;;;12.32;6.70;;;;;;;7.37;57.44;100756.97;5037643;28;20105;-65
2021/04/11 01:31:52;;;;;;;12.07;6.45;;;;;;;7.35;57.29;100756.53;5037307;28;20117;-62
2021/04/11 01:34:18;;;;;;;10.75;5.97;;;;;;;7.33;57.15;100742.13;5019739;28;20029;-61
2021/04/11 01:36:48;;;;;;;14.10;6.70;;;;;;;7.29;57.48;100742.06;5037475;28;20033;-62
2021/04/11 01:39:18;;;;;;;14.10;7.57;;;;;;;7.22;57.37;100735.53;5037596;28;20029;-57
2021/04/11 01:41:45;;;;;;;13.52;6.57;;;;;;;7.18;57.57;100740.25;5037320;28;20113;-59
2021/04/11 01:44:14;;;;;;;15.27;7.45;;;;;;;7.11;57.81;100741.72;5036933;28;20099;-59
2021/04/11 01:46:40;;;;;;;13.82;7.45;;;;;;;7.03;57.95;100737.19;5037150;28;20037;-56
2021/04/11 01:49:06;;;;;;;14.45;7.45;;;;;;;6.95;58.25;100738.25;5037291;28;20037;-56
2021/04/11 01:51:42;;;;;;;15.45;7.93;;;;;;;6.86;58.39;100734.88;5036342;28;20026;-62
2021/04/11 01:54:16;;;;;;;14.05;8.02;;;;;;;6.79;58.60;100734.72;5037063;28;20104;-62
2021/04/11 01:56:44;;;;;;;12.68;7.55;;;;;;;6.75;58.82;100728.25;5037302;28;20417;-61
2021/04/11 01:59:11;;;;;;;18.80;10.02;;;;;;;6.67;59.01;100723.72;5036816;28;20026;-58
2021/04/11 02:01:37;;;;;;;13.13;7.82;;;;;;;6.60;59.16;100721.59;5036738;28;20029;-61
2021/04/11 02:04:04;;;;;;;12.70;7.72;;;;;;;6.58;59.43;100728.72;5036984;28;20033;-55
2021/04/11 02:06:40;;;;;;;16.23;7.30;;;;;;;6.53;59.12;100721.41;5035050;28;20380;-59
2021/04/11 02:09:14;;;;;;;17.42;8.68;;;;;;;6.47;59.40;100720.91;5036853;28;20029;-60
2021/04/11 02:11:39;;;;;;;13.80;8.13;;;;;;;6.44;59.51;100724.44;5036986;28;20316;-58
2021/04/11 02:14:05;;;;;;;14.05;8.10;;;;;;;6.41;59.85;100722.38;5018606;28;20041;-60
2021/04/11 02:16:33;;;;;;;12.90;6.80;;;;;;;6.38;59.92;100725.91;5036365;28;20030;-62
2021/04/11 02:19:14;;;;;;;12.85;6.97;;;;;;;6.35;59.95;100721.06;5036686;28;20033;-59
2021/04/11 02:21:41;;;;;;;15.23;8.13;;;;;;;6.34;60.13;100725.03;5036365;28;20043;-54
2021/04/11 02:24:08;;;;;;;13.82;7.82;;;;;;;6.31;59.87;100722.97;5036427;28;20124;-60
2021/04/11 02:26:35;;;;;;;14.32;7.22;;;;;;;6.28;59.73;100722.88;5018888;28;20036;-59
2021/04/11 02:29:06;;;;;;;14.77;7.32;;;;;;;6.23;60.15;100714.78;5018647;28;20064;-62
2021/04/11 02:31:32;;;;;;;11.02;6.97;;;;;;;6.19;60.41;100723.91;5036323;28;20025;-66
2021/04/11 02:33:57;;;;;;;12.77;6.75;;;;;;;6.15;60.12;100722.19;5036484;28;20361;-65
2021/04/11 02:36:25;;;;;;;13.45;7.50;;;;;;;6.13;60.46;100718.97;5036190;28;20037;-64
2021/04/11 02:38:53;;;;;;;13.68;6.75;;;;;;;6.14;60.65;100712.22;5036225;28;20041;-65
2021/04/11 02:41:21;;;;;;;12.25;6.63;;;;;;;6.11;61.09;100722.13;5018558;28;20041;-64
2021/04/11 02:43:46;;;;;;;13.80;6.80;;;;;;;6.09;60.96;100718.91;5035810;28;20033;-60
2021/04/11 02:46:13;;;;;;;10.80;7.00;;;;;;;6.07;61.13;100715.66;5036190;28;20037;-65
2021/04/11 02:48:38;;;;;;;10.20;6.28;;;;;;;6.01;61.13;100714.31;5036035;28;20037;-65
2021/04/11 02:51:04;;;;;;;11.07;6.68;;;;;;;5.96;61.28;100711.00;5036281;28;20044;-65
2021/04/11 02:53:33;;;;;;;12.38;6.55;;;;;;;5.91;61.39;100712.09;5036134;28;20459;-65
2021/04/11 02:56:00;;;;;;;15.55;7.22;;;;;;;5.89;61.63;100714.41;5035874;28;20034;-65
2021/04/11 02:58:26;;;;;;;12.73;7.32;;;;;;;5.87;61.74;100711.16;5035577;28;20306;-65
2021/04/11 03:01:00;;;;;;;17.27;7.95;;;;;;;5.86;61.61;100712.34;5035865;28;20029;-65
2021/04/11 03:03:27;;;;;;;10.57;6.32;;;;;;;5.83;62.02;100708.31;5035941;28;20029;-65
2021/04/11 03:05:58;;;;;;;10.88;7.32;;;;;;;5.81;61.97;100707.84;5018174;28;20487;-65
2021/04/11 03:08:28;;;;;;;15.13;7.55;;;;;;;5.79;62.01;100717.75;5035909;28;20037;-61
2021/04/11 03:11:11;;;;;;;13.98;7.60;;;;;;;5.77;61.83;100712.56;5035608;28;20092;-61
2021/04/11 03:13:39;;;;;;;18.92;6.88;;;;;;;5.76;61.76;100710.94;5035827;28;20049;-62
2021/04/11 03:16:05;;;;;;;17.67;7.90;;;;;;;5.80;61.75;100717.41;5035349;28;20045;-64
2021/04/11 03:18:30;;;;;;;12.85;7.40;;;;;;;5.78;61.67;100718.94;5035635;28;20592;-65
2021/04/11 03:20:58;;;;;;;19.35;7.22;;;;;;;5.70;61.57;100712.34;5035757;28;20037;-62
2021/04/11 03:23:24;;;;;;;17.88;7.18;;;;;;;5.65;61.46;100723.78;5035557;28;20328;-64
2021/04/11 03:26:03;;;;;;;15.05;6.85;;;;;;;5.62;61.44;100716.16;5035348;28;20041;-65
2021/04/11 03:28:33;;;;;;;13.57;6.65;;;;;;;5.58;61.76;100715.25;5035577;28;20032;-63
2021/04/11 03:31:11;;;;;;;10.07;7.00;;;;;;;5.53;61.98;100718.34;5035485;28;20053;-64
2021/04/11 03:33:45;;;;;;;14.18;6.78;;;;;;;5.47;61.73;100719.75;5035660;28;20064;-63
2021/04/11 03:36:14;;;;;;;14.20;6.10;;;;;;;5.43;61.97;100710.50;5035460;28;20025;-62
2021/04/11 03:38:40;;;;;;;10.77;6.13;;;;;;;5.36;62.06;100707.53;5017943;28;20112;-64
2021/04/11 03:41:07;;;;;;;10.23;6.00;;;;;;;5.27;61.75;100719.69;5035308;28;20083;-63
2021/04/11 03:43:40;;;;;;;15.90;7.30;;;;;;;5.22;62.08;100714.38;5035202;28;20104;-63
2021/04/11 03:46:15;;;;;;;19.88;7.88;;;;;;;5.16;62.38;100732.50;5028129;28;20053;-63
2021/04/11 03:48:46;;;;;;;19.27;8.98;;;;;;;5.08;62.32;100722.34;5017830;28;20380;-63
2021/04/11 03:51:16;;;;;;;;;;;;;;;5.04;62.43;100718.66;5035966;28;20048;-65
2021/04/11 03:54:08;;;;;;;23.05;9.80;;;;;;;4.96;62.62;100723.25;5035363;28;19909;-59
2021/04/11 03:56:40;;;;;;;28.63;11.20;;;;;;;4.87;62.79;100732.91;5004079;28;20326;-63
2021/04/11 03:59:06;;;;;;;;;;;;;;;4.77;62.62;100737.03;5018153;28;20421;-60
2021/04/11 04:01:37;;;;;;;18.80;9.45;;;;;;;4.68;63.50;100732.78;5035263;28;19995;-60
2021/04/11 04:04:07;;;;;;;19.17;9.48;;;;;;;4.60;63.61;100740.09;5027454;28;20036;-65
2021/04/11 04:06:35;;;;;;;16.80;8.98;;;;;;;4.58;63.74;100734.88;5035614;28;20037;-64
2021/04/11 04:09:04;;;;;;;18.30;8.15;;;;;;;4.61;63.85;100739.75;5034957;28;20033;-64
2021/04/11 04:12:03;;;;;;;16.55;7.63;;;;;;;4.70;63.76;100747.16;5034796;28;20025;-66
2021/04/11 04:14:37;;;;;;;15.77;7.10;;;;;;;4.76;63.15;100743.75;5036422;28;20084;-65
2021/04/11 04:17:30;;;;;;;13.63;7.25;;;;;;;4.76;63.73;100746.53;5021247;28;20068;-58
2021/04/11 04:20:02;;;;;;;12.93;7.10;;;;;;;4.80;64.55;100755.00;5038738;28;20021;-52
2021/04/11 04:22:55;;;;;;;16.20;6.85;;;;;;;4.84;64.14;100753.94;5039051;28;20368;-57
2021/04/11 04:25:37;;;;;;;13.98;7.88;;;;;;;4.87;64.43;100760.75;5038955;28;20047;-65
2021/04/11 04:28:11;;;;;;;13.38;7.38;;;;;;;4.90;64.53;100758.06;5030756;28;20417;-64
2021/04/11 04:31:01;;;;;;;15.45;6.72;;;;;;;4.96;64.34;100769.78;5038775;28;20084;-64
2021/04/11 04:33:54;;;;;;;15.57;6.22;;;;;;;5.02;64.27;100767.56;4985734;28;20034;-65
2021/04/11 04:36:28;;;;;;;16.60;7.03;;;;;;;5.10;64.27;100772.16;5038310;28;20041;-64
2021/04/11 04:39:15;;;;;;;11.75;7.10;;;;;;;5.23;64.02;100766.16;5038371;28;20037;-65
2021/04/11 04:41:47;;;;;;;15.50;7.88;;;;;;;5.34;64.14;100762.84;5038321;28;20606;-65
2021/04/11 04:45:01;;;;;;;16.23;7.88;;;;;;;5.43;64.02;100771.81;5038097;28;20029;-65
2021/04/11 04:47:52;;;;;;;20.70;7.88;;;;;;;5.57;64.27;100763.84;5019879;28;20596;-63
2021/04/11 04:50:28;;;;;;;16.67;8.23;;;;;;;5.74;63.72;100768.22;5038160;28;20103;-65
2021/04/11 04:53:02;;;;;;;17.67;7.75;;;;;;;5.83;63.65;100758.50;5038215;28;20294;-61
2021/04/11 04:55:28;;;;;;;16.65;8.10;;;;;;;5.94;63.62;100764.38;5038077;28;20025;-61
2021/04/11 04:57:58;;;;;;;15.75;9.40;;;;;;;6.08;62.92;100766.69;5037997;28;20037;-65
2021/04/11 05:00:40;;;;;;;15.27;8.73;;;;;;;6.23;62.92;100768.63;5037743;28;20112;-65
2021/04/11 05:03:13;;;;;;;16.13;8.75;;;;;;;6.38;62.50;100764.19;5042780;28;20036;-65
2021/04/11 05:05:47;;;;;;;18.80;9.25;;;;;;;6.54;61.53;100778.88;5037636;28;20021;-65
2021/04/11 05:08:28;;;;;;;16.30;9.07;;;;;;;6.68;61.89;100767.22;5020881;28;20033;-64
2021/04/11 05:11:03;;;;;;;18.33;9.30;;;;;;;6.83;61.59;100771.91;5040830;28;20142;-65
2021/04/11 05:13:33;;;;;;;22.05;9.00;;;;;;;7.04;60.56;100765.94;5044723;28;20496;-64
2021/04/11 05:16:06;;;;;;;18.88;9.27;;;;;;;7.23;60.05;100770.72;5045856;28;20067;-64
2021/04/11 05:18:39;;;;;;;18.65;10.27;;;;;;;7.37;59.61;100776.56;5029574;28;20033;-66
2021/04/11 05:21:17;;;;;;;22.63;10.32;;;;;;;7.51;59.60;100781.59;5032440;28;20061;-64
2021/04/11 05:23:56;;;;;;;20.90;9.77;;;;;;;7.61;59.46;100778.97;5037441;28;20037;-64
2021/04/11 05:26:33;;;;;;;19.33;8.88;;;;;;;7.77;59.04;100780.84;5036443;28;20037;-65
2021/04/11 05:29:06;;;;;;;22.20;8.85;;;;;;;7.84;59.06;100775.38;5037560;28;20064;-61
2021/04/11 05:31:35;;;;;;;19.33;9.35;;;;;;;7.91;58.92;100773.47;5037455;28;20033;-50
2021/04/11 05:34:03;;;;;;;17.67;8.55;;;;;;;8.00;58.77;100776.84;5029317;28;20037;-64
2021/04/11 05:36:35;;;;;;;17.13;9.40;;;;;;;8.12;59.29;100784.22;5037078;28;20449;-61
2021/04/11 05:39:20;;;;;;;17.05;9.93;;;;;;;8.25;58.90;100777.22;5029294;28;20376;-62
2021/04/11 05:41:59;;;;;;;19.85;10.23;;;;;;;8.42;58.74;100780.69;5036636;28;20041;-58
2021/04/11 05:44:34;;;;;;;17.35;9.30;;;;;;;8.57;58.37;100782.50;5037320;28;20065;-59
2021/04/11 05:47:23;;;;;;;23.38;12.73;;;;;;;8.76;58.38;100785.16;5037186;28;20033;-60
2021/04/11 05:49:57;;;;;;;19.63;9.25;;;;;;;8.93;57.40;100789.38;5037129;28;20364;-51
2021/04/11 05:52:32;;;;;;;14.90;8.55;;;;;;;9.02;58.22;100786.25;5037169;28;20076;-65
2021/04/11 05:54:59;;;;;;;15.73;8.15;;;;;;;9.12;58.04;100786.41;5037165;28;20029;-64
2021/04/11 05:57:42;;;;;;;14.38;8.90;;;;;;;9.20;57.91;100785.28;5036770;28;20120;-61
2021/04/11 06:00:14;;;;;;;20.48;9.57;;;;;;;9.33;58.23;100783.03;5012380;28;20037;-56
2021/04/11 06:02:50;;;;;;;17.20;8.48;;;;;;;9.42;57.71;100780.72;5036806;28;20084;-60
2021/04/11 06:05:23;;;;;;;15.90;9.73;;;;;;;9.49;57.69;100782.78;5036588;28;20033;-57
2021/04/11 06:08:06;;;;;;;18.77;8.88;;;;;;;9.55;57.45;100770.81;5036759;28;20021;-60
2021/04/11 06:10:50;;;;;;;18.77;9.13;;;;;;;9.68;57.90;100779.75;5036452;28;20429;-61
2021/04/11 06:13:27;;;;;;;20.33;9.10;;;;;;;9.79;57.64;100782.66;5036674;28;20072;-59
2021/04/11 06:15:59;;;;;;;13.95;7.85;;;;;;;9.93;58.22;100782.78;5036473;28;20167;-63
2021/04/11 06:18:25;;;;;;;21.77;7.50;;;;;;;10.10;58.07;100776.47;5036488;28;20048;-61
2021/04/11 06:20:53;;;;;;;15.25;6.65;;;;;;;10.28;57.44;100784.25;5036118;28;20096;-62
2021/04/11 06:23:56;;;;;;;18.30;7.03;;;;;;;10.42;57.06;100779.56;5036455;28;20035;-64
2021/04/11 06:26:47;;;;;;;12.82;7.00;;;;;;;10.59;56.35;100786.47;5032757;28;20036;-64
2021/04/11 06:29:18;;;;;;;16.60;7.85;;;;;;;10.73;56.19;100788.56;5036462;28;20049;-64
2021/04/11 06:31:43;;;;;;;22.27;7.90;;;;;;;10.87;55.74;100788.59;5036217;28;20068;-63
2021/04/11 06:34:19;;;;;;;14.00;7.15;;;;;;;10.95;55.52;100783.81;5035955;28;20115;-60
2021/04/11 06:36:48;;;;;;;10.77;6.45;;;;;;;11.03;55.61;100791.09;5035795;28;20021;-63
2021/04/11 06:39:21;;;;;;;17.13;6.88;;;;;;;11.09;55.69;100787.50;5036480;28;20033;-64
2021/04/11 06:41:55;;;;;;;15.57;8.68;;;;;;;11.17;55.68;100785.50;5035889;28;20030;-61
2021/04/11 06:44:43;;;;;;;17.65;6.85;;;;;;;11.24;55.43;100784.72;5036064;28;20041;-58
2021/04/11 06:47:27;;;;;;;14.25;7.10;;;;;;;11.44;55.79;100775.50;5035138;28;20037;-62
2021/04/11 06:50:04;;;;;;;12.20;5.28;;;;;;;11.76;54.33;100775.53;5035357;28;20053;-63
2021/04/11 06:52:44;;;;;;;11.80;4.05;;;;;;;11.97;54.22;100771.97;5035810;28;20397;-58
2021/04/11 06:55:21;;;;;;;15.48;4.75;;;;;;;12.24;53.82;100768.72;5035217;28;20116;-63
2021/04/11 06:58:03;;;;;;;9.60;4.22;;;;;;;12.37;53.14;100781.19;5033304;28;20030;-62
2021/04/11 07:00:54;;;;;;;7.80;4.18;;;;;;;12.50;53.26;100779.53;5035082;28;20417;-61
2021/04/11 07:04:06;;;;;;;8.18;3.80;;;;;;;12.71;52.83;100781.50;5035461;28;20029;-63
2021/04/11 07:07:05;;;;;;;10.32;4.45;;;;;;;12.88;51.53;100782.66;5035235;28;20030;-63
2021/04/11 07:09:49;;;;;;;8.98;4.63;;;;;;;12.98;51.37;100787.44;5035216;28;20385;-64
2021/04/11 07:12:36;;;;;;;11.30;4.13;;;;;;;13.11;50.86;100780.13;5035211;28;20104;-64
2021/04/11 07:15:29;;;;;;;11.88;4.32;;;;;;;13.22;50.89;100782.94;5032398;28;20128;-65
2021/04/11 07:18:13;;;;;;;10.90;4.10;;;;;;;13.24;50.52;100781.28;5035187;28;20037;-60
2021/04/11 07:20:38;;;;;;;8.85;4.90;;;;;;;13.27;50.72;100780.47;5035690;28;20080;-59
2021/04/11 07:23:41;;;;;;;9.82;4.25;;;;;;;13.31;50.41;100783.28;5035395;28;20432;-64
2021/04/11 07:26:15;;;;;;;11.48;3.60;;;;;;;13.38;50.71;100788.88;5029840;28;20041;-59
2021/04/11 07:29:19;;;;;;;7.70;3.13;;;;;;;13.50;49.70;100781.97;5035660;28;20037;-55
2021/04/11 07:32:14;;;;;;;5.55;3.40;;;;;;;13.66;49.65;100784.25;4966192;28;20045;-60
2021/04/11 07:35:01;;;;;;;12.73;4.35;;;;;;;13.87;49.43;100784.91;5030139;28;20404;-62
2021/04/11 07:37:37;;;;;;;7.32;4.10;;;;;;;13.97;48.58;100783.22;5037357;28;20077;-60
2021/04/11 07:40:24;;;;;;;7.05;3.63;;;;;;;14.08;48.04;100783.94;5027344;28;20061;-64
2021/04/11 07:43:11;;;;;;;12.00;3.35;;;;;;;14.22;46.91;100788.63;5036119;28;20055;-62
2021/04/11 07:45:43;;;;;;;10.85;3.20;;;;;;;14.33;46.90;100782.91;5030632;28;20425;-63
2021/04/11 07:48:08;;;;;;;8.23;3.53;;;;;;;14.38;45.49;100782.44;5039582;28;20037;-65
2021/04/11 07:50:56;;;;;;;7.90;2.97;;;;;;;14.34;46.93;100782.47;5039055;28;20079;-62
2021/04/11 07:53:33;;;;;;;7.88;3.78;;;;;;;14.37;47.54;100784.47;5033832;28;20105;-62
2021/04/11 07:56:46;;;;;;;8.50;4.30;;;;;;;14.41;47.42;100788.06;5038143;28;20424;-64
2021/04/11 07:59:32;;;;;;;9.77;4.43;;;;;;;14.53;47.33;100787.56;4941520;29;20047;-65
2021/04/11 08:02:03;;;;;;;7.75;3.45;;;;;;;14.67;46.97;100797.91;4939953;29;20076;-65
2021/04/11 08:04:39;;;;;;;8.38;3.20;;;;;;;14.76;46.11;100786.88;5007387;28;20048;-63
2021/04/11 08:07:04;;;;;;;9.68;3.70;;;;;;;14.95;45.49;100784.66;5038296;28;20034;-59
2021/04/11 08:09:51;;;;;;;11.68;3.90;;;;;;;15.03;46.96;100784.13;5038496;28;20040;-66
2021/04/11 08:12:44;;;;;;;9.00;4.18;;;;;;;15.16;44.49;100795.72;5038804;28;20294;-67
2021/04/11 08:15:16;;;;;;;6.88;3.75;;;;;;;15.28;45.46;100795.13;5039882;28;20037;-64
2021/04/11 08:18:05;;;;;;;14.52;3.78;;;;;;;15.35;45.09;100786.56;5038519;28;20455;-61
2021/04/11 08:20:56;;;;;;;9.65;3.65;;;;;;;15.37;44.30;100783.31;5038251;28;20773;-59
2021/04/11 08:23:24;;;;;;;10.57;4.10;;;;;;;15.46;44.66;100792.06;5000299;28;20128;-68
2021/04/11 08:26:24;;;;;;;4.85;3.28;;;;;;;15.51;43.43;100787.94;5039052;28;21163;-65
2021/04/11 08:28:55;;;;;;;6.82;3.13;;;;;;;15.59;43.83;100784.59;5038368;28;20029;-63
2021/04/11 08:31:51;;;;;;;6.35;3.35;;;;;;;15.60;43.53;100774.88;5038410;28;20045;-59
2021/04/11 08:34:41;;;;;;;7.65;3.80;;;;;;;15.63;43.27;100779.72;5017763;28;20408;-59
2021/04/11 08:37:37;;;;;;;8.27;3.45;;;;;;;15.70;42.61;100773.13;5038294;28;20037;-65
2021/04/11 08:40:32;;;;;;;13.05;4.10;;;;;;;15.71;42.67;100778.34;5038334;28;20029;-65
2021/04/11 08:43:13;;;;;;;9.90;4.30;;;;;;;15.70;42.66;100778.78;4990730;28;20037;-65
2021/04/11 08:45:47;;;;;;;8.32;3.78;;;;;;;15.71;43.13;100777.56;5037837;28;20352;-67
2021/04/11 08:48:46;;;;;;;10.05;4.35;;;;;;;15.80;43.38;100777.81;5038261;28;20036;-65
2021/04/11 08:51:26;;;;;;;7.47;3.75;;;;;;;15.97;42.63;100778.75;5038595;28;20041;-62
2021/04/11 08:53:54;;;;;;;10.77;4.65;;;;;;;15.98;42.41;100777.53;5020514;28;20585;-64
2021/04/11 08:56:29;;;;;;;12.63;4.60;;;;;;;16.00;42.68;100769.38;5041246;28;20120;-63
2021/04/11 08:59:29;;;;;;;9.02;4.13;;;;;;;16.03;41.96;100779.88;5037971;28;20091;-59
2021/04/11 09:02:03;;;;;;;11.23;3.85;;;;;;;16.06;41.95;100770.50;5043749;28;20797;-63
2021/04/11 09:04:47;;;;;;;8.75;4.65;;;;;;;16.10;42.48;100773.25;5037942;28;20437;-64
2021/04/11 09:07:48;;;;;;;11.38;4.53;;;;;;;16.10;42.62;100768.38;5037177;28;20069;-58
2021/04/11 09:10:22;;;;;;;9.60;4.43;;;;;;;16.11;42.77;100770.00;5031420;28;20065;-59
2021/04/11 09:13:15;;;;;;;9.73;5.00;;;;;;;16.13;43.32;100764.69;5034787;28;20417;-62
2021/04/11 09:15:54;;;;;;;12.80;4.78;;;;;;;16.21;43.08;100774.69;5036873;28;20516;-62
2021/04/11 09:18:41;;;;;;;13.88;5.32;;;;;;;16.27;42.42;100772.16;5037445;28;20030;-64
2021/04/11 09:21:28;;;;;;;13.65;5.00;;;;;;;16.38;41.92;100773.56;5036959;28;20045;-61
2021/04/11 09:24:10;;;;;;;11.77;5.43;;;;;;;16.38;41.39;100765.03;5037435;28;20041;-59
2021/04/11 09:26:42;;;;;;;16.90;5.47;;;;;;;16.43;40.47;100774.28;5037083;28;20199;-58
2021/04/11 09:29:07;;;;;;;12.57;5.10;;;;;;;16.45;40.75;100771.84;5037277;28;20116;-60
2021/04/11 09:31:35;;;;;;;14.57;5.88;;;;;;;16.46;40.71;100771.41;5036933;28;20421;-54
2021/04/11 09:34:06;;;;;;;19.38;7.90;;;;;;;16.50;40.65;100779.84;5029111;28;20333;-65
2021/04/11 09:37:04;;;;;;;12.77;5.80;;;;;;;16.54;38.80;100767.19;5036764;28;20354;-62
2021/04/11 09:39:50;;;;;;;14.57;6.30;;;;;;;16.52;40.36;100766.81;5037173;28;20037;-65
2021/04/11 09:42:33;;;;;;;13.30;6.60;;;;;;;16.50;39.78;100757.16;5037247;28;20052;-65
2021/04/11 09:45:18;;;;;;;14.30;5.82;;;;;;;16.55;39.36;100756.63;5037050;28;20038;-65
2021/04/11 09:48:01;;;;;;;12.45;5.50;;;;;;;16.56;39.34;100749.72;5037175;28;20431;-65
2021/04/11 09:50:48;;;;;;;10.82;5.10;;;;;;;16.56;37.86;100735.53;5037165;28;20083;-62
2021/04/11 09:53:48;;;;;;;13.77;5.97;;;;;;;16.62;38.41;100756.50;5037230;28;20494;-63
2021/04/11 09:56:49;;;;;;;13.27;5.65;;;;;;;16.65;37.56;100741.44;5036930;28;20033;-65
2021/04/11 09:59:33;;;;;;;13.02;5.88;;;;;;;16.68;37.53;100751.94;5000483;28;20042;-62
2021/04/11 10:02:29;;;;;;;11.02;6.15;;;;;;;16.71;37.32;100744.59;5036905;28;20037;-64
2021/04/11 10:05:11;;;;;;;12.23;6.03;;;;;;;16.79;35.75;100743.22;5037043;28;20109;-64
2021/04/11 10:07:37;;;;;;;15.02;6.50;;;;;;;16.88;35.47;100755.59;5036765;28;20360;-66
2021/04/11 10:10:02;;;;;;;14.67;7.03;;;;;;;16.88;35.37;100737.75;5036677;28;20039;-60
2021/04/11 10:12:55;;;;;;;13.75;7.03;;;;;;;16.94;35.01;100739.63;5035939;28;20259;-62
2021/04/11 10:15:33;;;;;;;10.95;5.95;;;;;;;17.01;33.48;100737.91;5019118;28;20049;-60
2021/04/11 10:18:17;;;;;;;9.73;5.90;;;;;;;17.11;33.81;100739.69;5036530;28;20064;-62
2021/04/11 10:20:57;;;;;;;16.65;6.22;;;;;;;17.15;32.03;100729.06;5036677;28;20033;-66
2021/04/11 10:23:47;;;;;;;13.02;6.85;;;;;;;17.15;32.50;100746.09;5036679;28;20051;-65
2021/04/11 10:26:21;;;;;;;12.65;6.75;;;;;;;17.18;32.70;100734.66;5036191;28;20528;-65
2021/04/11 10:28:52;;;;;;;11.32;6.70;;;;;;;17.12;32.90;100732.78;5036445;28;20033;-64
2021/04/11 10:31:33;;;;;;;12.38;6.25;;;;;;;17.18;32.66;100739.53;5036373;28;20170;-64
2021/04/11 10:34:23;;;;;;;16.17;6.43;;;;;;;17.22;30.84;100728.88;5036430;28;20451;-64
2021/04/11 10:37:05;;;;;;;13.52;5.50;;;;;;;17.28;30.22;100735.66;5036095;28;20033;-64
2021/04/11 10:40:04;;;;;;;11.23;5.60;;;;;;;17.32;30.60;100739.22;5036173;28;20037;-64
2021/04/11 10:42:51;;;;;;;12.93;4.68;;;;;;;17.40;31.08;100734.97;5024964;28;20042;-62
2021/04/11 10:45:38;;;;;;;9.95;5.25;;;;;;;17.41;30.82;100742.25;5036169;28;20033;-64
2021/04/11 10:48:15;;;;;;;11.60;5.97;;;;;;;17.45;31.12;100728.75;5036242;28;20026;-61
2021/04/11 10:50:56;;;;;;;11.88;6.15;;;;;;;17.45;32.04;100725.91;5036150;28;20496;-61
2021/04/11 10:53:30;;;;;;;17.88;6.18;;;;;;;17.50;31.62;100722.53;5035944;28;20433;-61
2021/04/11 10:56:19;;;;;;;12.07;5.85;;;;;;;17.51;31.18;100718.44;5035937;28;20061;-59
2021/04/11 10:58:54;;;;;;;13.60;5.43;;;;;;;17.61;31.30;100725.13;5035816;28;20685;-61
2021/04/11 11:01:31;;;;;;;12.57;5.65;;;;;;;17.58;31.62;100723.97;5036106;28;20086;-61
2021/04/11 11:04:08;;;;;;;13.88;6.15;;;;;;;17.58;31.46;100723.19;5035821;28;20033;-64
2021/04/11 11:07:11;;;;;;;14.07;7.35;;;;;;;17.53;32.63;100716.00;5035281;28;20056;-54
2021/04/11 11:10:02;;;;;;;13.95;6.35;;;;;;;17.58;32.59;100706.94;5035481;28;20083;-64
2021/04/11 11:12:42;;;;;;;12.98;6.20;;;;;;;17.62;31.89;100715.38;5035210;28;20397;-62
2021/04/11 11:15:19;;;;;;;10.73;5.38;;;;;;;17.61;32.56;100705.25;5034926;28;20049;-59
2021/04/11 11:18:06;;;;;;;13.70;6.45;;;;;;;17.64;32.50;100712.06;5034850;28;20036;-60
2021/04/11 11:20:48;;;;;;;12.95;6.97;;;;;;;17.63;31.91;100707.63;5035228;28;20038;-59
2021/04/11 11:23:37;;;;;;;12.93;6.72;;;;;;;17.57;32.11;100702.50;5034463;28;20048;-59
2021/04/11 11:26:21;;;;;;;11.00;6.20;;;;;;;17.56;32.48;100708.63;5034880;28;20090;-60
2021/04/11 11:29:04;;;;;;;12.13;6.28;;;;;;;17.53;32.06;100698.09;5017433;28;20325;-62
2021/04/11 11:31:38;;;;;;;10.75;5.82;;;;;;;17.55;32.60;100702.13;5035018;28;20112;-58
2021/04/11 11:34:20;;;;;;;13.73;6.15;;;;;;;17.56;31.64;100698.06;5034803;28;20360;-59
2021/04/11 11:36:53;;;;;;;11.50;5.60;;;;;;;17.52;32.72;100697.31;5037253;28;20029;-56
2021/04/11 11:39:34;;;;;;;17.40;6.22;;;;;;;17.53;32.15;100693.25;5034122;28;20032;-64
2021/04/11 11:42:09;;;;;;;12.83;6.63;;;;;;;17.51;31.75;100680.72;5037125;28;20441;-59
2021/04/11 11:44:43;;;;;;;10.23;5.70;;;;;;;17.53;32.17;100681.06;5036380;28;20034;-60
2021/04/11 11:47:24;;;;;;;14.23;7.43;;;;;;;17.55;32.50;100685.09;5033741;28;20130;-58
2021/04/11 11:49:56;;;;;;;10.87;6.13;;;;;;;17.57;32.22;100687.47;5035350;28;20062;-51
2021/04/11 11:52:33;;;;;;;;;;;;;;;17.56;31.80;100678.16;5031196;28;20281;-60
2021/04/11 11:55:06;;;;;;;12.88;6.03;;;;;;;17.56;32.24;100683.03;5032080;28;19909;-60
2021/04/11 11:57:43;;;;;;;10.63;6.32;;;;;;;17.56;32.11;100686.69;5034513;28;20037;-59
2021/04/11 12:00:17;;;;;;;17.88;7.97;;;;;;;17.52;31.79;100685.94;5035172;28;20041;-65
2021/04/11 12:02:58;;;;;;;14.13;8.05;;;;;;;17.47;32.45;100689.31;5035167;28;20025;-60
2021/04/11 12:05:50;;;;;;;14.65;6.30;;;;;;;17.47;32.91;100682.84;5035145;28;20033;-60